PWSweather.com
Personal Weather Stations
Station Observations
KCTHAMDEN
Dunbar Hill, Hamden, CT 06514

Dunbar HillHamden, CT 06514

Lat: 41.365437, Lon: -72.956532

Elevation: 200

Station Type: Davis Vantage Pro2+

Latest ConditionsUpdated 8:45:01 PM EST Wednesday, Jan 16, 2019
Currently Today's Max Today's Min Today's Average
Temperature 32.8°F0.4°C 39.0°F3.9°C 19.8°F-6.8°C 29.9°F-1.2°C
Dew Point 23.4°F-4.8°C 27.0°F-2.8°C 17.6°F-8.0°C 23.0°F-5.0°C
Winds Calm Calm 3.8 mph -6.1 kmh - - 0.5 mph 0.8 kmh
Wind Gusts -- 9.0 mph14.5 kmh - -
Humidity 68% 93% 56% 76%
Pressure 30.11 in1019.6 mb 30.11 in1019.6 mb 30.00 in1015.9 mb -
Hour Temp Dew Point Humidity Winds Wind Gusts Pressure Precip Precip Rate Daily Precip Total
08:45 PM 32.8°F0.4°C 23.4°F-4.8°C 68% Calm Calm -- 30.11 in1019.6 mb - 0.00 in0.0 mm 0.00 in0.0 mm
08:30 PM 32.9°F0.5°C 23.8°F-4.6°C 69% Calm Calm -- 30.10 in1019.3 mb - 0.00 in0.0 mm 0.00 in0.0 mm
08:15 PM 32.8°F0.4°C 24.4°F-4.2°C 71% Calm Calm -- 30.10 in1019.3 mb - 0.00 in0.0 mm 0.00 in0.0 mm
08:00 PM 32.8°F0.4°C 24.8°F-4.0°C 72% 0.1 mph SSW0.2 kmh SSW 2.0 mph3.2 kmh 30.09 in1019.0 mb - 0.00 in0.0 mm 0.00 in0.0 mm
07:45 PM 33.1°F0.6°C 24.7°F-4.1°C 71% Calm Calm -- 30.09 in1019.0 mb - 0.00 in0.0 mm 0.00 in0.0 mm
07:30 PM 33.5°F0.8°C 25.1°F-3.8°C 71% Calm Calm -- 30.08 in1018.6 mb - 0.00 in0.0 mm 0.00 in0.0 mm
07:15 PM 33.9°F1.1°C 25.1°F-3.8°C 70% Calm Calm -- 30.08 in1018.6 mb - 0.00 in0.0 mm 0.00 in0.0 mm
07:00 PM 34.2°F1.2°C 25.1°F-3.8°C 69% Calm Calm -- 30.07 in1018.3 mb - 0.00 in0.0 mm 0.00 in0.0 mm
06:45 PM 34.5°F1.4°C 24.7°F-4.1°C 67% Calm Calm 1.0 mph1.6 kmh 30.07 in1018.3 mb - 0.00 in0.0 mm 0.00 in0.0 mm
06:30 PM 34.7°F1.5°C 24.5°F-4.2°C 66% Calm Calm -- 30.07 in1018.3 mb - 0.00 in0.0 mm 0.00 in0.0 mm
06:15 PM 34.8°F1.6°C 24.2°F-4.3°C 65% Calm Calm -- 30.06 in1017.9 mb - 0.00 in0.0 mm 0.00 in0.0 mm
06:00 PM 35.0°F1.7°C 24.4°F-4.2°C 65% Calm Calm -- 30.06 in1017.9 mb - 0.00 in0.0 mm 0.00 in0.0 mm
05:45 PM 35.1°F1.7°C 24.5°F-4.2°C 65% Calm Calm -- 30.05 in1017.6 mb - 0.00 in0.0 mm 0.00 in0.0 mm
05:30 PM 35.2°F1.8°C 24.2°F-4.3°C 64% Calm Calm -- 30.05 in1017.6 mb - 0.00 in0.0 mm 0.00 in0.0 mm
05:15 PM 35.4°F1.9°C 24.1°F-4.4°C 63% Calm Calm -- 30.04 in1017.3 mb - 0.00 in0.0 mm 0.00 in0.0 mm
05:00 PM 35.9°F2.2°C 24.1°F-4.4°C 62% Calm Calm -- 30.03 in1016.9 mb - 0.00 in0.0 mm 0.00 in0.0 mm
04:45 PM 36.2°F2.3°C 24.1°F-4.4°C 61% 0.7 mph S1.1 kmh S 1.0 mph1.6 kmh 30.03 in1016.9 mb - 0.00 in0.0 mm 0.00 in0.0 mm
04:30 PM 36.6°F2.6°C 24.0°F-4.4°C 60% 1.1 mph SW1.8 kmh SW 5.0 mph8.0 kmh 30.02 in1016.6 mb - 0.00 in0.0 mm 0.00 in0.0 mm
04:15 PM 37.3°F2.9°C 24.7°F-4.1°C 60% 1.0 mph S1.6 kmh S 3.0 mph4.8 kmh 30.02 in1016.6 mb - 0.00 in0.0 mm 0.00 in0.0 mm
04:00 PM 37.6°F3.1°C 24.9°F-3.9°C 60% Calm Calm 3.0 mph4.8 kmh 30.02 in1016.6 mb - 0.00 in0.0 mm 0.00 in0.0 mm
03:45 PM 37.8°F3.2°C 24.3°F-4.3°C 58% 0.2 mph SSW0.3 kmh SSW 1.0 mph1.6 kmh 30.02 in1016.6 mb - 0.00 in0.0 mm 0.00 in0.0 mm
03:30 PM 37.9°F3.3°C 24.4°F-4.2°C 58% 0.8 mph SSW1.3 kmh SSW 3.0 mph4.8 kmh 30.01 in1016.3 mb - 0.00 in0.0 mm 0.00 in0.0 mm
03:15 PM 38.2°F3.4°C 24.3°F-4.3°C 57% 1.9 mph SW3.1 kmh SW 7.0 mph11.3 kmh 30.01 in1016.3 mb - 0.00 in0.0 mm 0.00 in0.0 mm
03:00 PM 38.7°F3.7°C 24.8°F-4.0°C 57% 1.3 mph SSW2.1 kmh SSW 3.0 mph4.8 kmh 30.01 in1016.3 mb - 0.00 in0.0 mm 0.00 in0.0 mm
02:45 PM 39.0°F3.9°C 24.7°F-4.1°C 56% 1.3 mph WNW2.1 kmh WNW 4.0 mph6.4 kmh 30.01 in1016.3 mb - 0.00 in0.0 mm 0.00 in0.0 mm
02:30 PM 38.8°F3.8°C 25.3°F-3.7°C 58% 2.1 mph SSW3.4 kmh SSW 3.0 mph4.8 kmh 30.01 in1016.3 mb - 0.00 in0.0 mm 0.00 in0.0 mm
02:15 PM 38.1°F3.4°C 25.0°F-3.9°C 59% 1.8 mph S2.9 kmh S 9.0 mph14.5 kmh 30.01 in1016.3 mb - 0.00 in0.0 mm 0.00 in0.0 mm
02:00 PM 37.8°F3.2°C 25.6°F-3.6°C 61% 0.1 mph WSW0.2 kmh WSW 2.0 mph3.2 kmh 30.01 in1016.3 mb - 0.00 in0.0 mm 0.00 in0.0 mm
01:45 PM 37.7°F3.2°C 25.5°F-3.6°C 61% 0.6 mph SE1.0 kmh SE 2.0 mph3.2 kmh 30.00 in1015.9 mb - 0.00 in0.0 mm 0.00 in0.0 mm
01:30 PM 37.6°F3.1°C 25.8°F-3.4°C 62% 0.5 mph ESE0.8 kmh ESE 3.0 mph4.8 kmh 30.00 in1015.9 mb - 0.00 in0.0 mm 0.00 in0.0 mm
01:15 PM 37.4°F3.0°C 26.3°F-3.2°C 64% 2.4 mph WSW3.9 kmh WSW 6.0 mph9.7 kmh 30.00 in1015.9 mb - 0.00 in0.0 mm 0.00 in0.0 mm
01:00 PM 37.1°F2.8°C 26.4°F-3.1°C 65% 3.8 mph SSW6.1 kmh SSW 9.0 mph14.5 kmh 30.00 in1015.9 mb - 0.00 in0.0 mm 0.00 in0.0 mm
12:45 PM 36.9°F2.7°C 26.2°F-3.2°C 65% 2.4 mph SW3.9 kmh SW 3.0 mph4.8 kmh 30.01 in1016.3 mb - 0.00 in0.0 mm 0.00 in0.0 mm
12:30 PM 36.4°F2.4°C 26.5°F-3.1°C 67% 0.2 mph SW0.3 kmh SW 2.0 mph3.2 kmh 30.01 in1016.3 mb - 0.00 in0.0 mm 0.00 in0.0 mm
12:15 PM 35.9°F2.2°C 26.4°F-3.1°C 68% 2.7 mph SSW4.3 kmh SSW 7.0 mph11.3 kmh 30.01 in1016.3 mb - 0.00 in0.0 mm 0.00 in0.0 mm
12:00 PM 35.7°F2.1°C 26.9°F-2.8°C 70% 0.3 mph S0.5 kmh S 2.0 mph3.2 kmh 30.02 in1016.6 mb - 0.00 in0.0 mm 0.00 in0.0 mm
11:45 AM 35.1°F1.7°C 27.0°F-2.8°C 72% 1.4 mph S2.3 kmh S 2.0 mph3.2 kmh 30.03 in1016.9 mb - 0.00 in0.0 mm 0.00 in0.0 mm
11:30 AM 34.1°F1.2°C 27.0°F-2.8°C 75% 0.2 mph SW0.3 kmh SW 2.0 mph3.2 kmh 30.03 in1016.9 mb - 0.00 in0.0 mm 0.00 in0.0 mm
11:15 AM 33.2°F0.7°C 25.8°F-3.4°C 74% 0.7 mph SSW1.1 kmh SSW 3.0 mph4.8 kmh 30.04 in1017.3 mb - 0.00 in0.0 mm 0.00 in0.0 mm
11:00 AM 32.8°F0.4°C 25.7°F-3.5°C 75% 3.8 mph SSW6.1 kmh SSW 6.0 mph9.7 kmh 30.05 in1017.6 mb - 0.00 in0.0 mm 0.00 in0.0 mm
10:45 AM 32.0°F0.0°C 25.6°F-3.6°C 77% 1.0 mph S1.6 kmh S 2.0 mph3.2 kmh 30.05 in1017.6 mb - 0.00 in0.0 mm 0.00 in0.0 mm
10:30 AM 31.4°F-0.3°C 25.0°F-3.9°C 77% 2.0 mph SSW3.2 kmh SSW 3.0 mph4.8 kmh 30.05 in1017.6 mb - 0.00 in0.0 mm 0.00 in0.0 mm
10:15 AM 31.1°F-0.5°C 24.7°F-4.1°C 77% 0.5 mph S0.8 kmh S 2.0 mph3.2 kmh 30.05 in1017.6 mb - 0.00 in0.0 mm 0.00 in0.0 mm
10:00 AM 30.7°F-0.7°C 25.0°F-3.9°C 79% 0.3 mph S0.5 kmh S 1.0 mph1.6 kmh 30.05 in1017.6 mb - 0.00 in0.0 mm 0.00 in0.0 mm
09:45 AM 30.3°F-0.9°C 24.6°F-4.1°C 79% 0.3 mph S0.5 kmh S 1.0 mph1.6 kmh 30.05 in1017.6 mb - 0.00 in0.0 mm 0.00 in0.0 mm
09:30 AM 29.9°F-1.2°C 24.5°F-4.2°C 80% 1.1 mph S1.8 kmh S 1.0 mph1.6 kmh 30.05 in1017.6 mb - 0.00 in0.0 mm 0.00 in0.0 mm
09:15 AM 29.5°F-1.4°C 24.1°F-4.4°C 80% 0.1 mph S0.2 kmh S 1.0 mph1.6 kmh 30.04 in1017.3 mb - 0.00 in0.0 mm 0.00 in0.0 mm
09:00 AM 29.0°F-1.7°C 23.9°F-4.5°C 81% 0.5 mph SE0.8 kmh SE -- 30.04 in1017.3 mb - 0.00 in0.0 mm 0.00 in0.0 mm
08:45 AM 28.3°F-2.1°C 23.2°F-4.9°C 81% 0.6 mph S1.0 kmh S 1.0 mph1.6 kmh 30.04 in1017.3 mb - 0.00 in0.0 mm 0.00 in0.0 mm
08:30 AM 27.0°F-2.8°C 22.8°F-5.1°C 84% 2.0 mph S3.2 kmh S 4.0 mph6.4 kmh 30.04 in1017.3 mb - 0.00 in0.0 mm 0.00 in0.0 mm
08:15 AM 26.2°F-3.2°C 22.0°F-5.6°C 84% 0.2 mph S0.3 kmh S -- 30.04 in1017.3 mb - 0.00 in0.0 mm 0.00 in0.0 mm
08:00 AM 25.9°F-3.4°C 21.4°F-5.9°C 83% 0.2 mph SSW0.3 kmh SSW 1.0 mph1.6 kmh 30.03 in1016.9 mb - 0.00 in0.0 mm 0.00 in0.0 mm
07:45 AM 25.8°F-3.4°C 21.3°F-5.9°C 83% 0.2 mph S0.3 kmh S 1.0 mph1.6 kmh 30.04 in1017.3 mb - 0.00 in0.0 mm 0.00 in0.0 mm
07:30 AM 25.9°F-3.4°C 21.4°F-5.9°C 83% 0.4 mph S0.6 kmh S 2.0 mph3.2 kmh 30.05 in1017.6 mb - 0.00 in0.0 mm 0.00 in0.0 mm
07:15 AM 25.8°F-3.4°C 21.6°F-5.8°C 84% 0.3 mph S0.5 kmh S 1.0 mph1.6 kmh 30.04 in1017.3 mb - 0.00 in0.0 mm 0.00 in0.0 mm
07:00 AM 25.8°F-3.4°C 21.9°F-5.6°C 85% Calm Calm 1.0 mph1.6 kmh 30.05 in1017.6 mb - 0.00 in0.0 mm 0.00 in0.0 mm
06:45 AM 25.7°F-3.5°C 22.1°F-5.5°C 86% 1.0 mph SW1.6 kmh SW 2.0 mph3.2 kmh 30.04 in1017.3 mb - 0.00 in0.0 mm 0.00 in0.0 mm
06:30 AM 25.6°F-3.6°C 22.3°F-5.4°C 87% 0.3 mph SW0.5 kmh SW 1.0 mph1.6 kmh 30.04 in1017.3 mb - 0.00 in0.0 mm 0.00 in0.0 mm
06:15 AM 25.6°F-3.6°C 22.5°F-5.3°C 88% Calm Calm -- 30.04 in1017.3 mb - 0.00 in0.0 mm 0.00 in0.0 mm
06:00 AM 25.6°F-3.6°C 22.5°F-5.3°C 88% Calm Calm -- 30.04 in1017.3 mb - 0.00 in0.0 mm 0.00 in0.0 mm
05:45 AM 25.4°F-3.7°C 22.6°F-5.2°C 89% Calm Calm -- 30.03 in1016.9 mb - 0.00 in0.0 mm 0.00 in0.0 mm
05:30 AM 24.8°F-4.0°C 22.2°F-5.4°C 90% Calm Calm -- 30.03 in1016.9 mb - 0.00 in0.0 mm 0.00 in0.0 mm
05:15 AM 23.9°F-4.5°C 21.4°F-5.9°C 90% Calm Calm -- 30.03 in1016.9 mb - 0.00 in0.0 mm 0.00 in0.0 mm
05:00 AM 23.0°F-5.0°C 20.2°F-6.6°C 89% Calm Calm 1.0 mph1.6 kmh 30.03 in1016.9 mb - 0.00 in0.0 mm 0.00 in0.0 mm
04:45 AM 23.3°F-4.8°C 20.3°F-6.5°C 88% Calm Calm 1.0 mph1.6 kmh 30.04 in1017.3 mb - 0.00 in0.0 mm 0.00 in0.0 mm
04:30 AM 23.8°F-4.6°C 21.0°F-6.1°C 89% Calm Calm 1.0 mph1.6 kmh 30.03 in1016.9 mb - 0.00 in0.0 mm 0.00 in0.0 mm
04:15 AM 24.1°F-4.4°C 21.6°F-5.8°C 90% Calm Calm -- 30.04 in1017.3 mb - 0.00 in0.0 mm 0.00 in0.0 mm
04:00 AM 23.8°F-4.6°C 21.6°F-5.8°C 91% Calm Calm 1.0 mph1.6 kmh 30.04 in1017.3 mb - 0.00 in0.0 mm 0.00 in0.0 mm
03:45 AM 23.3°F-4.8°C 21.3°F-5.9°C 92% Calm Calm -- 30.05 in1017.6 mb - 0.00 in0.0 mm 0.00 in0.0 mm
03:30 AM 22.0°F-5.6°C 20.3°F-6.5°C 93% Calm Calm -- 30.05 in1017.6 mb - 0.00 in0.0 mm 0.00 in0.0 mm
03:15 AM 20.5°F-6.4°C 18.6°F-7.4°C 92% Calm Calm -- 30.06 in1017.9 mb - 0.00 in0.0 mm 0.00 in0.0 mm
03:00 AM 20.0°F-6.7°C 18.1°F-7.7°C 92% Calm Calm -- 30.07 in1018.3 mb - 0.00 in0.0 mm 0.00 in0.0 mm
02:45 AM 19.8°F-6.8°C 17.6°F-8.0°C 91% Calm Calm -- 30.07 in1018.3 mb - 0.00 in0.0 mm 0.00 in0.0 mm
02:30 AM 19.9°F-6.7°C 17.7°F-7.9°C 91% Calm Calm -- 30.07 in1018.3 mb - 0.00 in0.0 mm 0.00 in0.0 mm
02:15 AM 20.0°F-6.7°C 17.8°F-7.9°C 91% Calm Calm -- 30.07 in1018.3 mb - 0.00 in0.0 mm 0.00 in0.0 mm
02:00 AM 20.1°F-6.6°C 17.6°F-8.0°C 90% Calm Calm -- 30.07 in1018.3 mb - 0.00 in0.0 mm 0.00 in0.0 mm
01:45 AM 20.2°F-6.6°C 17.7°F-7.9°C 90% Calm Calm -- 30.07 in1018.3 mb - 0.00 in0.0 mm 0.00 in0.0 mm
01:30 AM 20.4°F-6.4°C 17.9°F-7.8°C 90% Calm Calm -- 30.08 in1018.6 mb - 0.00 in0.0 mm 0.00 in0.0 mm
01:15 AM 20.5°F-6.4°C 17.8°F-7.9°C 89% Calm Calm -- 30.08 in1018.6 mb - 0.00 in0.0 mm 0.00 in0.0 mm
01:00 AM 20.8°F-6.2°C 18.1°F-7.7°C 89% Calm Calm -- 30.08 in1018.6 mb - 0.00 in0.0 mm 0.00 in0.0 mm
12:45 AM 21.0°F-6.1°C 18.3°F-7.6°C 89% Calm Calm -- 30.09 in1019.0 mb - 0.00 in0.0 mm 0.00 in0.0 mm
12:30 AM 21.1°F-6.1°C 18.3°F-7.6°C 89% Calm Calm -- 30.09 in1019.0 mb - 0.00 in0.0 mm 0.00 in0.0 mm
12:15 AM 21.2°F-6.0°C 18.5°F-7.5°C 89% Calm Calm -- 30.09 in1019.0 mb - 0.00 in0.0 mm 0.00 in0.0 mm
12:00 AM 21.3°F-5.9°C 18.3°F-7.6°C 88% Calm Calm -- 30.10 in1019.3 mb - 0.00 in0.0 mm 0.00 in0.0 mm